createdAt,value
2023-02-27T00:01:18.873Z,17.06
2023-02-27T00:04:20.925Z,17.06
2023-02-27T00:07:25.965Z,17.00
2023-02-27T00:10:28.068Z,17.00
2023-02-27T00:13:30.294Z,17.00
2023-02-27T00:16:32.461Z,16.94
2023-02-27T00:19:34.632Z,17.00
2023-02-27T00:22:36.919Z,16.94
2023-02-27T00:25:38.969Z,16.88
2023-02-27T00:28:41.124Z,16.94
2023-02-27T00:31:43.349Z,16.88
2023-02-27T00:34:45.448Z,16.88
2023-02-27T00:37:47.805Z,16.88
2023-02-27T00:40:49.851Z,16.88
2023-02-27T00:43:51.936Z,16.81
2023-02-27T00:46:54.144Z,16.81
2023-02-27T00:49:56.357Z,16.81
2023-02-27T00:52:58.487Z,16.75
2023-02-27T00:56:00.567Z,16.75
2023-02-27T00:59:02.836Z,16.75
2023-02-27T01:02:04.857Z,16.75
2023-02-27T01:05:07.249Z,16.75
2023-02-27T01:08:09.279Z,16.69
2023-02-27T01:11:11.277Z,16.69
2023-02-27T01:14:13.376Z,16.63
2023-02-27T01:17:15.456Z,16.63
2023-02-27T01:20:17.835Z,16.69
2023-02-27T01:23:20.181Z,16.63
2023-02-27T01:26:22.232Z,16.63
2023-02-27T01:29:24.280Z,16.63
2023-02-27T01:32:26.493Z,16.63
2023-02-27T01:35:28.537Z,16.56
2023-02-27T01:38:30.727Z,16.56
2023-02-27T01:41:32.827Z,16.56
2023-02-27T01:45:23.275Z,16.50
2023-02-27T01:48:37.389Z,16.50
2023-02-27T01:51:45.776Z,16.50
2023-02-27T01:54:48.032Z,16.50
2023-02-27T01:57:51.029Z,16.50
2023-02-27T02:00:53.659Z,16.50
2023-02-27T02:04:17.519Z,16.44
2023-02-27T02:07:21.000Z,16.44
2023-02-27T02:10:23.095Z,16.44
2023-02-27T02:13:25.514Z,16.38
2023-02-27T02:16:55.285Z,16.38
2023-02-27T02:20:12.871Z,16.38
2023-02-27T02:23:42.721Z,16.38
2023-02-27T02:26:56.119Z,16.31
2023-02-27T02:30:32.109Z,16.38
2023-02-27T02:34:08.322Z,16.31
2023-02-27T02:37:32.159Z,16.31
2023-02-27T02:41:02.572Z,16.25
2023-02-27T02:44:04.534Z,16.25
2023-02-27T02:47:17.430Z,16.25
2023-02-27T02:50:29.161Z,16.25
2023-02-27T02:53:54.816Z,16.19
2023-02-27T02:57:06.609Z,16.19
2023-02-27T03:00:14.720Z,16.19
2023-02-27T03:03:29.932Z,16.19
2023-02-27T03:06:35.599Z,16.19
2023-02-27T03:09:40.267Z,16.19
2023-02-27T03:12:46.531Z,16.19
2023-02-27T03:16:00.401Z,16.13
2023-02-27T03:19:22.044Z,16.13
2023-02-27T03:22:34.215Z,16.13
2023-02-27T03:25:37.513Z,16.06
2023-02-27T03:28:45.858Z,16.06
2023-02-27T03:31:58.416Z,16.06
2023-02-27T03:35:00.877Z,16.06
2023-02-27T03:38:37.762Z,16.06
2023-02-27T03:41:47.247Z,16.00
2023-02-27T03:45:13.246Z,16.00
2023-02-27T03:48:15.351Z,16.00
2023-02-27T03:51:23.492Z,16.00
2023-02-27T03:54:34.623Z,16.00
2023-02-27T03:57:37.826Z,16.13
2023-02-27T04:00:40.245Z,16.19
2023-02-27T04:03:51.032Z,16.25
2023-02-27T04:07:21.068Z,16.31
2023-02-27T04:10:41.469Z,16.44
2023-02-27T04:13:55.007Z,16.50
2023-02-27T04:17:12.105Z,16.63
2023-02-27T04:20:37.549Z,16.81
2023-02-27T04:23:47.120Z,16.94
2023-02-27T04:26:55.127Z,17.00
2023-02-27T04:30:13.126Z,17.19
2023-02-27T04:33:15.121Z,17.25
2023-02-27T04:36:44.410Z,17.44
2023-02-27T04:40:00.434Z,17.56
2023-02-27T04:43:05.760Z,17.63
2023-02-27T04:46:11.669Z,17.69
2023-02-27T04:49:22.997Z,17.81
2023-02-27T04:52:41.617Z,17.94
2023-02-27T04:55:47.833Z,17.94
2023-02-27T04:59:01.634Z,18.00
2023-02-27T05:02:14.886Z,18.13
2023-02-27T05:05:25.137Z,18.19
2023-02-27T05:09:19.042Z,18.19
2023-02-27T05:12:23.464Z,18.19
2023-02-27T05:15:40.250Z,18.13
2023-02-27T05:18:42.581Z,18.06
2023-02-27T05:22:07.441Z,18.06
2023-02-27T05:25:15.525Z,18.19
2023-02-27T05:28:22.464Z,18.38
2023-02-27T05:31:28.096Z,18.50
2023-02-27T05:34:43.471Z,18.50
2023-02-27T05:37:55.756Z,18.44
2023-02-27T05:41:17.199Z,18.50
2023-02-27T05:44:23.178Z,18.56
2023-02-27T05:47:30.777Z,18.56
2023-02-27T05:50:36.009Z,18.50
2023-02-27T05:53:45.392Z,18.50
2023-02-27T05:56:49.933Z,18.56
2023-02-27T05:59:58.316Z,18.56
2023-02-27T06:03:00.588Z,18.50
2023-02-27T06:06:06.734Z,18.56
2023-02-27T06:09:09.855Z,18.63
2023-02-27T06:12:12.796Z,18.69
2023-02-27T06:15:14.916Z,18.56
2023-02-27T06:18:17.910Z,18.56
2023-02-27T06:21:20.017Z,18.69
2023-02-27T06:24:22.261Z,18.75
2023-02-27T06:27:24.333Z,18.81
2023-02-27T06:30:26.820Z,18.75
2023-02-27T06:33:33.784Z,18.81
2023-02-27T06:36:36.245Z,18.94
2023-02-27T06:39:48.252Z,19.00
2023-02-27T06:42:50.482Z,19.06
2023-02-27T06:45:56.370Z,19.00
2023-02-27T06:49:05.206Z,19.00
2023-02-27T06:52:07.478Z,19.13
2023-02-27T06:55:10.133Z,19.19
2023-02-27T06:58:12.151Z,19.13
2023-02-27T07:01:14.583Z,19.13
2023-02-27T07:04:19.395Z,19.25
2023-02-27T07:07:34.860Z,19.31
2023-02-27T07:10:39.997Z,19.38
2023-02-27T07:13:42.298Z,19.31
2023-02-27T07:16:44.592Z,19.44
2023-02-27T07:19:46.663Z,19.50
2023-02-27T07:22:49.144Z,19.63
2023-02-27T07:25:54.838Z,19.63
2023-02-27T07:28:56.876Z,19.69
2023-02-27T07:31:58.961Z,19.88
2023-02-27T07:35:00.996Z,20.06
2023-02-27T07:38:03.179Z,20.06
2023-02-27T07:41:05.373Z,20.00
2023-02-27T07:44:08.599Z,20.00
2023-02-27T07:47:11.249Z,20.13
2023-02-27T07:50:14.083Z,20.19
2023-02-27T07:53:16.128Z,20.19
2023-02-27T07:56:18.180Z,20.06
2023-02-27T07:59:20.208Z,20.13
2023-02-27T08:02:22.871Z,19.94
2023-02-27T08:05:25.008Z,20.06
2023-02-27T08:08:27.055Z,20.13
2023-02-27T08:11:29.471Z,20.13
2023-02-27T08:14:31.843Z,20.25
2023-02-27T08:17:33.882Z,20.44
2023-02-27T08:20:37.013Z,20.50
2023-02-27T08:23:39.354Z,20.56
2023-02-27T08:26:41.931Z,20.69
2023-02-27T08:29:45.337Z,20.75
2023-02-27T08:32:51.128Z,20.88
2023-02-27T08:35:54.486Z,21.00
2023-02-27T08:38:56.574Z,21.00
2023-02-27T08:41:58.763Z,21.00
2023-02-27T08:45:00.972Z,21.06
2023-02-27T08:48:03.276Z,21.13
2023-02-27T08:51:05.587Z,21.19
2023-02-27T08:54:07.702Z,21.13
2023-02-27T08:57:09.753Z,21.13
2023-02-27T09:00:14.636Z,21.19
2023-02-27T09:03:16.692Z,21.25
2023-02-27T09:06:18.729Z,21.25
2023-02-27T09:09:23.532Z,21.25
2023-02-27T09:12:25.623Z,21.25
2023-02-27T09:15:27.825Z,21.31
2023-02-27T09:18:29.950Z,21.31
2023-02-27T09:21:32.181Z,21.31
2023-02-27T09:24:34.153Z,21.25
2023-02-27T09:27:36.262Z,21.19
2023-02-27T09:30:38.631Z,21.19
2023-02-27T09:33:46.313Z,21.13
2023-02-27T09:36:48.468Z,21.13
2023-02-27T09:39:50.655Z,21.19
2023-02-27T09:43:03.674Z,21.13
2023-02-27T09:46:17.079Z,21.19
2023-02-27T09:49:21.316Z,21.19
2023-02-27T09:52:24.882Z,21.19
2023-02-27T09:55:33.707Z,21.13
2023-02-27T09:58:53.664Z,21.13
2023-02-27T10:02:24.229Z,21.06
2023-02-27T10:05:40.685Z,21.06
2023-02-27T10:09:11.629Z,21.06
2023-02-27T10:12:19.738Z,20.94
2023-02-27T10:15:38.591Z,20.94
2023-02-27T10:18:46.838Z,20.88
2023-02-27T10:21:57.612Z,20.75
2023-02-27T10:25:30.328Z,20.88
2023-02-27T10:28:33.978Z,20.81
2023-02-27T10:31:36.758Z,20.75
2023-02-27T10:34:41.819Z,20.81
2023-02-27T10:37:54.028Z,20.75
2023-02-27T10:40:57.987Z,20.75
2023-02-27T10:44:06.476Z,20.69
2023-02-27T10:47:18.353Z,20.69
2023-02-27T10:50:25.339Z,20.69
2023-02-27T10:53:30.512Z,20.63
2023-02-27T10:56:32.826Z,20.56
2023-02-27T10:59:40.335Z,20.44
2023-02-27T11:02:54.262Z,20.44
2023-02-27T11:06:04.729Z,20.38
2023-02-27T11:09:18.796Z,20.44
2023-02-27T11:12:24.325Z,20.38
2023-02-27T11:15:34.164Z,20.31
2023-02-27T11:18:41.446Z,20.38
2023-02-27T11:22:03.539Z,20.38
2023-02-27T11:25:25.554Z,20.25
2023-02-27T11:28:31.866Z,20.31
2023-02-27T11:31:38.840Z,20.44
2023-02-27T11:34:50.654Z,20.44
2023-02-27T11:37:55.197Z,20.44
2023-02-27T11:41:03.707Z,20.44
2023-02-27T11:44:06.629Z,20.44
2023-02-27T11:47:16.552Z,20.50
2023-02-27T11:50:36.834Z,20.50
2023-02-27T11:53:57.235Z,20.44
2023-02-27T11:57:04.817Z,20.50
2023-02-27T12:00:36.070Z,20.50
2023-02-27T12:04:16.634Z,20.38
2023-02-27T12:07:43.996Z,20.44
2023-02-27T12:11:01.779Z,20.38
2023-02-27T12:14:17.453Z,20.38
2023-02-27T12:17:26.882Z,20.19
2023-02-27T12:20:38.427Z,20.06
2023-02-27T12:23:51.768Z,20.31
2023-02-27T12:27:06.479Z,20.44
2023-02-27T12:30:17.608Z,20.50
2023-02-27T12:33:44.626Z,20.19
2023-02-27T12:36:48.547Z,18.44
2023-02-27T12:39:53.562Z,17.81
2023-02-27T12:43:02.685Z,17.75
2023-02-27T12:46:24.969Z,17.63
2023-02-27T12:49:55.185Z,18.75
2023-02-27T12:53:15.537Z,19.44
2023-02-27T12:56:20.939Z,19.44
2023-02-27T12:59:43.986Z,19.88
2023-02-27T13:03:02.551Z,20.06
2023-02-27T13:06:53.913Z,20.19
2023-02-27T13:10:01.389Z,20.31
2023-02-27T13:13:12.403Z,20.44
2023-02-27T13:16:21.554Z,20.50
2023-02-27T13:20:06.907Z,20.63
2023-02-27T13:23:23.515Z,20.63
2023-02-27T13:26:35.442Z,20.75
2023-02-27T13:29:41.584Z,20.81
2023-02-27T13:32:56.953Z,20.81
2023-02-27T13:36:29.725Z,20.50
2023-02-27T13:39:44.018Z,20.50
2023-02-27T13:42:46.167Z,20.69
2023-02-27T13:45:50.833Z,20.38
2023-02-27T13:48:54.619Z,20.31
2023-02-27T13:51:59.627Z,20.69
2023-02-27T13:55:11.934Z,20.81
2023-02-27T13:58:20.098Z,20.94
2023-02-27T14:01:28.948Z,21.00
2023-02-27T14:04:46.784Z,21.00
2023-02-27T14:08:00.398Z,21.06
2023-02-27T14:11:28.162Z,21.13
2023-02-27T14:14:46.917Z,21.19
2023-02-27T14:17:54.665Z,21.25
2023-02-27T14:21:01.750Z,21.25
2023-02-27T14:24:04.641Z,21.31
2023-02-27T14:27:24.749Z,21.31
2023-02-27T14:30:29.721Z,21.19
2023-02-27T14:33:55.883Z,21.06
2023-02-27T14:37:01.617Z,21.06
2023-02-27T14:40:06.214Z,21.19
2023-02-27T14:43:22.802Z,21.31
2023-02-27T14:46:32.208Z,21.25
2023-02-27T14:49:37.851Z,20.94
2023-02-27T14:52:44.172Z,20.69
2023-02-27T14:55:57.253Z,20.44
2023-02-27T14:59:04.615Z,20.31
2023-02-27T15:02:22.391Z,20.25
2023-02-27T15:05:31.724Z,20.19
2023-02-27T15:08:41.024Z,20.06
2023-02-27T15:11:51.263Z,20.13
2023-02-27T15:15:03.448Z,20.00
2023-02-27T15:18:14.079Z,19.94
2023-02-27T15:21:17.639Z,19.88
2023-02-27T15:24:26.541Z,19.88
2023-02-27T15:27:30.132Z,19.81
2023-02-27T15:30:32.745Z,19.75
2023-02-27T15:33:34.948Z,19.75
2023-02-27T15:36:38.110Z,19.69
2023-02-27T15:39:41.676Z,19.69
2023-02-27T15:42:44.532Z,19.63
2023-02-27T15:45:47.119Z,19.56
2023-02-27T15:48:51.238Z,19.50
2023-02-27T15:52:12.175Z,19.50
2023-02-27T15:55:17.331Z,19.50
2023-02-27T15:58:40.301Z,19.50
2023-02-27T16:01:42.645Z,19.38
2023-02-27T16:04:46.421Z,19.31
2023-02-27T16:07:49.792Z,19.19
2023-02-27T16:10:52.899Z,19.31
2023-02-27T16:13:55.735Z,19.31
2023-02-27T16:16:57.868Z,19.25
2023-02-27T16:20:02.339Z,19.31
2023-02-27T16:23:28.973Z,19.25
2023-02-27T16:26:39.126Z,19.25
2023-02-27T16:29:45.287Z,19.13
2023-02-27T16:32:47.712Z,19.19
2023-02-27T16:35:50.704Z,19.13
2023-02-27T16:38:53.334Z,19.06
2023-02-27T16:41:57.445Z,18.94
2023-02-27T16:44:59.665Z,19.06
2023-02-27T16:48:02.909Z,19.00
2023-02-27T16:51:06.469Z,19.00
2023-02-27T16:54:11.146Z,18.94
2023-02-27T16:57:14.024Z,18.88
2023-02-27T17:00:19.256Z,19.00
2023-02-27T17:03:21.546Z,19.00
2023-02-27T17:06:23.757Z,18.94
2023-02-27T17:09:29.356Z,18.94
2023-02-27T17:12:31.550Z,18.94
2023-02-27T17:15:33.798Z,18.94
2023-02-27T17:18:37.622Z,18.94
2023-02-27T17:21:40.026Z,18.88
2023-02-27T17:24:42.459Z,18.75
2023-02-27T17:27:45.054Z,18.81
2023-02-27T17:30:48.180Z,18.81
2023-02-27T17:33:54.183Z,18.81
2023-02-27T17:36:56.504Z,18.88
2023-02-27T17:39:58.676Z,18.88
2023-02-27T17:43:00.749Z,18.75
2023-02-27T17:46:06.703Z,18.75
2023-02-27T17:49:09.470Z,18.69
2023-02-27T17:52:12.481Z,18.69
2023-02-27T17:55:16.650Z,18.56
2023-02-27T17:58:19.666Z,18.63
2023-02-27T18:01:26.209Z,18.56
2023-02-27T18:04:28.734Z,18.50
2023-02-27T18:07:31.457Z,18.50
2023-02-27T18:10:33.470Z,18.50
2023-02-27T18:13:35.658Z,18.56
2023-02-27T18:16:37.938Z,18.44
2023-02-27T18:19:43.357Z,18.44
2023-02-27T18:22:45.406Z,18.44
2023-02-27T18:25:54.888Z,18.44
2023-02-27T18:29:00.277Z,18.38
2023-02-27T18:32:02.610Z,18.44
2023-02-27T18:35:04.983Z,18.38
2023-02-27T18:38:07.047Z,18.31
2023-02-27T18:41:15.130Z,18.31
2023-02-27T18:44:17.430Z,18.31
2023-02-27T18:47:19.534Z,18.25
2023-02-27T18:50:22.082Z,18.25
2023-02-27T18:53:24.092Z,18.31
2023-02-27T18:56:27.491Z,18.31
2023-02-27T18:59:29.927Z,18.25
2023-02-27T19:02:32.325Z,18.25
2023-02-27T19:05:40.410Z,18.25
2023-02-27T19:08:42.568Z,18.25
2023-02-27T19:11:46.798Z,18.19
2023-02-27T19:14:52.551Z,18.19
2023-02-27T19:17:54.722Z,18.19
2023-02-27T19:20:57.491Z,18.25
2023-02-27T19:24:00.692Z,18.19
2023-02-27T19:27:02.932Z,18.19
2023-02-27T19:30:05.620Z,18.13
2023-02-27T19:33:07.632Z,18.13
2023-02-27T19:36:12.544Z,18.13
2023-02-27T19:39:14.888Z,18.13
2023-02-27T19:42:18.017Z,18.13
2023-02-27T19:45:21.517Z,18.13
2023-02-27T19:48:24.437Z,18.06
2023-02-27T19:51:26.970Z,18.06
2023-02-27T19:54:29.699Z,18.06
2023-02-27T19:57:33.939Z,18.06
2023-02-27T20:00:36.213Z,18.06
2023-02-27T20:03:43.154Z,18.00
2023-02-27T20:06:49.444Z,18.00
2023-02-27T20:09:51.505Z,18.00
2023-02-27T20:12:53.498Z,18.00
2023-02-27T20:16:04.130Z,18.00
2023-02-27T20:19:07.618Z,17.94
2023-02-27T20:22:09.718Z,17.94
2023-02-27T20:25:12.165Z,17.94
2023-02-27T20:28:14.193Z,17.94
2023-02-27T20:31:18.841Z,18.00
2023-02-27T20:34:22.712Z,17.88
2023-02-27T20:37:24.770Z,17.94
2023-02-27T20:40:28.682Z,17.88
2023-02-27T20:43:30.939Z,17.88
2023-02-27T20:46:32.936Z,17.88
2023-02-27T20:49:36.209Z,17.88
2023-02-27T20:52:38.491Z,17.88
2023-02-27T20:55:52.146Z,17.88
2023-02-27T20:58:54.418Z,17.81
2023-02-27T21:01:56.580Z,17.81
2023-02-27T21:04:59.625Z,17.81
2023-02-27T21:08:01.825Z,17.81
2023-02-27T21:11:17.075Z,17.81
2023-02-27T21:14:19.404Z,17.81
2023-02-27T21:17:23.228Z,17.81
2023-02-27T21:20:25.263Z,17.75
2023-02-27T21:23:27.312Z,17.75
2023-02-27T21:26:35.056Z,17.75
2023-02-27T21:29:38.438Z,17.75
2023-02-27T21:32:40.634Z,17.75
2023-02-27T21:35:46.662Z,17.69
2023-02-27T21:38:48.852Z,17.69
2023-02-27T21:41:51.043Z,17.69
2023-02-27T21:44:53.119Z,17.69
2023-02-27T21:47:55.329Z,17.69
2023-02-27T21:51:01.143Z,17.69
2023-02-27T21:54:03.350Z,17.63
2023-02-27T21:57:05.496Z,17.63
2023-02-27T22:00:11.083Z,17.63
2023-02-27T22:03:15.515Z,17.63
2023-02-27T22:06:19.828Z,17.63
2023-02-27T22:09:21.920Z,17.63
2023-02-27T22:12:24.178Z,17.69
2023-02-27T22:15:26.196Z,17.69
2023-02-27T22:18:28.605Z,17.75
2023-02-27T22:21:31.003Z,17.75
2023-02-27T22:24:33.139Z,17.69
2023-02-27T22:27:35.172Z,17.69
2023-02-27T22:30:37.308Z,17.69
2023-02-27T22:33:43.490Z,17.63
2023-02-27T22:36:49.054Z,17.63
2023-02-27T22:39:51.244Z,17.63
2023-02-27T22:42:53.415Z,17.63
2023-02-27T22:45:56.915Z,17.56
2023-02-27T22:49:02.005Z,17.56
2023-02-27T22:52:04.282Z,17.63
2023-02-27T22:55:06.854Z,17.56
2023-02-27T22:58:08.878Z,17.50
2023-02-27T23:01:11.828Z,17.50
2023-02-27T23:04:16.967Z,17.50
2023-02-27T23:07:19.003Z,17.50
2023-02-27T23:10:26.664Z,17.50
2023-02-27T23:13:28.764Z,17.50
2023-02-27T23:16:31.125Z,17.44
2023-02-27T23:19:43.028Z,17.44
2023-02-27T23:22:47.392Z,17.44
2023-02-27T23:25:49.396Z,17.38
2023-02-27T23:28:51.544Z,17.44
2023-02-27T23:31:53.741Z,17.38
2023-02-27T23:34:55.885Z,17.38
2023-02-27T23:37:59.291Z,17.31
2023-02-27T23:41:09.492Z,17.31
2023-02-27T23:44:30.038Z,17.31
2023-02-27T23:47:44.648Z,17.25
2023-02-27T23:50:46.792Z,17.25
2023-02-27T23:53:48.930Z,17.25
2023-02-27T23:56:51.023Z,17.19
2023-02-27T23:59:53.086Z,17.19
